createdAt,value
2019-02-02T00:01:18.104Z,74.93
2019-02-02T00:04:40.774Z,78.00
2019-02-02T00:08:03.232Z,79.80
2019-02-02T00:11:25.386Z,80.57
2019-02-02T00:14:47.832Z,85.07
2019-02-02T00:18:10.465Z,85.47
2019-02-02T00:21:32.898Z,68.93
2019-02-02T00:24:55.302Z,86.07
2019-02-02T00:28:18.069Z,85.17
2019-02-02T00:31:41.036Z,98.47
2019-02-02T00:35:03.269Z,95.40
2019-02-02T00:38:26.350Z,99.73
2019-02-02T00:41:48.933Z,95.93
2019-02-02T00:45:12.524Z,102.60
2019-02-02T00:48:35.116Z,103.03
2019-02-02T00:51:58.075Z,109.43
2019-02-02T00:55:21.113Z,103.83
2019-02-02T00:58:44.179Z,114.07
2019-02-02T01:02:06.886Z,106.80
2019-02-02T01:05:30.005Z,120.40
2019-02-02T01:08:52.295Z,127.60
2019-02-02T01:12:14.988Z,122.30
2019-02-02T01:15:38.670Z,125.97
2019-02-02T01:19:01.518Z,112.70
2019-02-02T01:22:23.633Z,130.00
2019-02-02T01:25:46.022Z,128.60
2019-02-02T01:29:08.633Z,138.27
2019-02-02T01:32:30.968Z,135.93
2019-02-02T01:35:53.681Z,136.73
2019-02-02T01:39:16.376Z,138.13
2019-02-02T01:42:39.103Z,139.77
2019-02-02T01:46:01.756Z,152.63
2019-02-02T01:49:24.384Z,151.73
2019-02-02T01:52:46.513Z,145.87
2019-02-02T01:56:10.151Z,153.77
2019-02-02T01:59:32.545Z,167.60
2019-02-02T02:02:55.304Z,172.23
2019-02-02T02:06:17.776Z,169.60
2019-02-02T02:09:40.290Z,149.07
2019-02-02T02:13:02.715Z,158.27
2019-02-02T02:16:25.220Z,163.10
2019-02-02T02:19:47.828Z,173.73
2019-02-02T02:23:10.504Z,180.10
2019-02-02T02:26:32.757Z,156.73
2019-02-02T02:29:56.001Z,180.40
2019-02-02T02:33:18.150Z,169.33
2019-02-02T02:36:40.681Z,167.50
2019-02-02T02:40:03.252Z,180.03
2019-02-02T02:43:26.129Z,184.83
2019-02-02T02:46:48.786Z,169.07
2019-02-02T02:50:13.957Z,182.20
2019-02-02T02:53:36.060Z,174.30
2019-02-02T02:56:58.650Z,178.17
2019-02-02T03:00:23.582Z,187.47
2019-02-02T03:03:46.384Z,175.47
2019-02-02T03:07:09.046Z,174.60
2019-02-02T03:10:31.757Z,173.07
2019-02-02T03:13:54.165Z,185.30
2019-02-02T03:17:16.924Z,183.80
2019-02-02T03:20:39.569Z,188.80
2019-02-02T03:24:01.974Z,185.70
2019-02-02T03:27:24.517Z,184.67
2019-02-02T03:30:47.351Z,185.57
2019-02-02T03:34:09.866Z,181.13
2019-02-02T03:37:32.191Z,193.13
2019-02-02T03:40:54.851Z,197.97
2019-02-02T03:44:17.470Z,192.77
2019-02-02T03:47:39.573Z,184.93
2019-02-02T03:51:01.982Z,187.00
2019-02-02T03:54:24.406Z,201.83
2019-02-02T03:57:46.956Z,189.33
2019-02-02T04:01:09.517Z,193.33
2019-02-02T04:04:32.178Z,197.30
2019-02-02T04:07:55.051Z,189.27
2019-02-02T04:11:17.602Z,197.47
2019-02-02T04:14:40.063Z,185.00
2019-02-02T04:18:03.859Z,202.93
2019-02-02T04:21:26.403Z,214.27
2019-02-02T04:24:49.175Z,208.00
2019-02-02T04:28:11.784Z,181.50
2019-02-02T04:31:34.345Z,196.13
2019-02-02T04:34:56.861Z,189.97
2019-02-02T04:38:19.297Z,187.30
2019-02-02T04:41:42.079Z,182.27
2019-02-02T04:45:05.627Z,179.80
2019-02-02T04:48:28.017Z,188.57
2019-02-02T04:51:50.521Z,192.70
2019-02-02T04:55:14.712Z,167.70
2019-02-02T04:58:37.062Z,186.63
2019-02-02T05:01:59.481Z,181.10
2019-02-02T05:05:22.390Z,178.20
2019-02-02T05:08:44.880Z,172.07
2019-02-02T05:12:07.168Z,190.40
2019-02-02T05:15:29.463Z,182.03
2019-02-02T05:18:51.996Z,174.07
2019-02-02T05:22:14.921Z,183.83
2019-02-02T05:25:37.088Z,196.40
2019-02-02T05:28:59.152Z,147.00
2019-02-02T05:32:21.770Z,177.20
2019-02-02T05:35:44.419Z,178.40
2019-02-02T05:39:08.820Z,168.90
2019-02-02T05:42:31.269Z,172.07
2019-02-02T05:45:54.660Z,155.00
2019-02-02T05:49:17.308Z,176.77
2019-02-02T05:52:39.668Z,127.50
2019-02-02T05:56:02.045Z,173.60
2019-02-02T05:59:24.809Z,176.77
2019-02-02T06:02:46.903Z,176.07
2019-02-02T06:06:09.626Z,171.63
2019-02-02T06:09:32.186Z,175.97
2019-02-02T06:12:54.459Z,164.53
2019-02-02T06:16:16.862Z,174.57
2019-02-02T06:19:39.274Z,180.97
2019-02-02T06:23:01.698Z,177.37
2019-02-02T06:26:24.183Z,184.70
2019-02-02T06:29:46.722Z,184.50
2019-02-02T06:33:09.593Z,183.53
2019-02-02T06:36:32.245Z,180.97
2019-02-02T06:39:54.719Z,168.10
2019-02-02T06:43:17.541Z,170.70
2019-02-02T06:46:43.731Z,176.93
2019-02-02T06:50:05.567Z,183.03
2019-02-02T06:53:34.668Z,182.37
2019-02-02T06:56:56.881Z,180.33
2019-02-02T07:00:21.928Z,178.30
2019-02-02T07:03:44.330Z,172.73
2019-02-02T07:07:06.853Z,179.23
2019-02-02T07:10:29.360Z,173.00
2019-02-02T07:13:52.094Z,185.23
2019-02-02T07:17:14.254Z,182.97
2019-02-02T07:20:36.731Z,180.17
2019-02-02T07:23:59.241Z,178.53
2019-02-02T07:27:21.907Z,178.57
2019-02-02T07:30:44.291Z,188.80
2019-02-02T07:34:06.443Z,199.20
2019-02-02T07:37:28.682Z,191.23
2019-02-02T07:40:51.119Z,177.37
2019-02-02T07:44:13.645Z,188.23
2019-02-02T07:47:36.503Z,184.83
2019-02-02T07:50:58.645Z,186.90
2019-02-02T07:54:21.608Z,185.37
2019-02-02T07:57:44.069Z,183.77
2019-02-02T08:01:06.678Z,180.80
2019-02-02T08:04:29.229Z,186.37
2019-02-02T08:07:51.904Z,182.30
2019-02-02T08:11:14.364Z,173.13
2019-02-02T08:14:36.798Z,187.10
2019-02-02T08:17:59.189Z,174.57
2019-02-02T08:21:21.700Z,174.53
2019-02-02T08:24:44.362Z,186.47
2019-02-02T08:28:07.128Z,181.13
2019-02-02T08:31:29.796Z,196.50
2019-02-02T08:34:52.486Z,188.40
2019-02-02T08:38:15.205Z,176.97
2019-02-02T08:41:37.702Z,189.70
2019-02-02T08:45:00.458Z,186.73
2019-02-02T08:48:22.913Z,175.37
2019-02-02T08:51:45.749Z,179.87
2019-02-02T08:55:07.997Z,185.70
2019-02-02T08:58:30.577Z,177.07
2019-02-02T09:01:53.335Z,188.67
2019-02-02T09:05:18.116Z,180.87
2019-02-02T09:08:41.657Z,174.00
2019-02-02T09:12:04.838Z,173.43
2019-02-02T09:15:27.710Z,187.73
2019-02-02T09:18:52.911Z,171.40
2019-02-02T09:22:15.581Z,180.77
2019-02-02T09:25:37.981Z,184.00
2019-02-02T09:29:00.047Z,182.00
2019-02-02T09:32:22.669Z,186.80
2019-02-02T09:35:45.356Z,191.83
2019-02-02T09:39:08.875Z,196.83
2019-02-02T09:42:31.333Z,193.10
2019-02-02T09:45:53.842Z,201.63
2019-02-02T09:49:16.397Z,207.27
2019-02-02T09:52:39.101Z,203.87
2019-02-02T09:56:01.888Z,190.70
2019-02-02T09:59:24.306Z,206.27
2019-02-02T10:02:46.850Z,186.77
2019-02-02T10:06:09.542Z,195.40
2019-02-02T10:09:32.278Z,203.53
2019-02-02T10:12:55.047Z,187.87
2019-02-02T10:16:17.235Z,185.63
2019-02-02T10:19:39.619Z,185.50
2019-02-02T10:23:02.597Z,178.47
2019-02-02T10:26:25.449Z,199.20
2019-02-02T10:29:48.105Z,206.93
2019-02-02T10:33:11.623Z,202.37
2019-02-02T10:36:34.349Z,197.03
2019-02-02T10:39:56.962Z,188.27
2019-02-02T10:43:19.433Z,205.83
2019-02-02T10:46:42.421Z,205.03
2019-02-02T10:50:05.543Z,198.97
2019-02-02T10:53:27.976Z,182.27
2019-02-02T10:56:50.684Z,190.27
2019-02-02T11:00:19.574Z,184.23
2019-02-02T11:03:41.891Z,186.57
2019-02-02T11:07:04.494Z,174.43
2019-02-02T11:10:28.709Z,175.83
2019-02-02T11:13:51.204Z,180.83
2019-02-02T11:17:13.482Z,174.80
2019-02-02T11:20:36.661Z,158.43
2019-02-02T11:23:59.249Z,166.90
2019-02-02T11:27:22.046Z,162.97
2019-02-02T11:30:44.817Z,169.30
2019-02-02T11:34:07.814Z,166.00
2019-02-02T11:37:29.911Z,187.77
2019-02-02T11:40:52.490Z,210.27
2019-02-02T11:44:15.225Z,209.30
2019-02-02T11:47:38.002Z,184.00
2019-02-02T11:51:00.199Z,178.43
2019-02-02T11:54:22.654Z,179.67
2019-02-02T11:57:45.241Z,187.80
2019-02-02T12:01:07.870Z,159.87
2019-02-02T12:04:30.534Z,202.13
2019-02-02T12:07:53.110Z,199.67
2019-02-02T12:11:15.594Z,193.70
2019-02-02T12:14:38.242Z,203.53
2019-02-02T12:18:01.030Z,204.03
2019-02-02T12:21:24.050Z,225.13
2019-02-02T12:24:46.259Z,240.23
2019-02-02T12:28:09.312Z,211.20
2019-02-02T12:31:32.297Z,218.20
2019-02-02T12:34:55.102Z,208.43
2019-02-02T12:38:17.195Z,214.13
2019-02-02T12:41:39.924Z,228.47
2019-02-02T12:45:02.345Z,220.07
2019-02-02T12:48:25.091Z,210.63
2019-02-02T12:51:47.309Z,210.53
2019-02-02T12:55:09.840Z,233.83
2019-02-02T12:58:32.331Z,209.53
2019-02-02T13:01:54.609Z,215.63
2019-02-02T13:05:19.081Z,232.13
2019-02-02T13:08:41.750Z,235.13
2019-02-02T13:12:04.441Z,234.17
2019-02-02T13:15:26.629Z,212.97
2019-02-02T13:18:49.266Z,254.97
2019-02-02T13:22:12.032Z,253.00
2019-02-02T13:25:34.964Z,265.53
2019-02-02T13:28:57.666Z,289.73
2019-02-02T13:32:20.404Z,285.77
2019-02-02T13:35:44.345Z,295.37
2019-02-02T13:39:09.735Z,284.27
2019-02-02T13:42:32.191Z,272.43
2019-02-02T13:45:55.100Z,279.17
2019-02-02T13:49:17.538Z,283.77
2019-02-02T13:52:40.093Z,586.07
2019-02-02T13:56:02.761Z,334.90
2019-02-02T13:59:25.669Z,300.53
2019-02-02T14:02:48.577Z,295.40
2019-02-02T14:06:11.603Z,282.83
2019-02-02T14:09:34.167Z,283.70
2019-02-02T14:12:56.988Z,270.40
2019-02-02T14:16:19.937Z,246.17
2019-02-02T14:19:42.457Z,228.33
2019-02-02T14:23:05.526Z,202.83
2019-02-02T14:26:27.928Z,211.07
2019-02-02T14:29:50.325Z,226.47
2019-02-02T14:33:14.496Z,216.90
2019-02-02T14:36:37.024Z,206.73
2019-02-02T14:39:59.648Z,192.60
2019-02-02T14:43:22.462Z,210.27
2019-02-02T14:46:44.501Z,197.67
2019-02-02T14:50:10.010Z,184.30
2019-02-02T14:53:32.624Z,184.17
2019-02-02T14:56:55.193Z,173.13
2019-02-02T15:00:19.630Z,177.60
2019-02-02T15:03:41.852Z,168.47
2019-02-02T15:07:04.645Z,180.23
2019-02-02T15:10:27.173Z,189.77
2019-02-02T15:13:49.982Z,179.83
2019-02-02T15:17:12.522Z,171.23
2019-02-02T15:20:36.974Z,167.83
2019-02-02T15:23:59.381Z,150.43
2019-02-02T15:27:21.883Z,162.40
2019-02-02T15:30:44.267Z,190.87
2019-02-02T15:34:07.094Z,199.37
2019-02-02T15:37:29.517Z,197.67
2019-02-02T15:40:59.089Z,196.90
2019-02-02T15:44:16.294Z,225.30
2019-02-02T15:47:38.461Z,256.27
2019-02-02T15:51:00.640Z,252.80
2019-02-02T15:54:23.131Z,266.83
2019-02-02T15:57:45.590Z,256.77
2019-02-02T16:01:08.160Z,240.63
2019-02-02T16:04:30.574Z,248.67
2019-02-02T16:07:53.313Z,243.53
2019-02-02T16:11:15.834Z,241.23
2019-02-02T16:14:38.562Z,239.90
2019-02-02T16:18:01.297Z,224.50
2019-02-02T16:21:23.694Z,225.87
2019-02-02T16:24:46.509Z,248.20
2019-02-02T16:28:08.769Z,221.73
2019-02-02T16:31:31.412Z,229.77
2019-02-02T16:34:54.097Z,228.33
2019-02-02T16:38:16.747Z,220.57
2019-02-02T16:41:39.611Z,221.70
2019-02-02T16:45:02.366Z,221.73
2019-02-02T16:48:26.218Z,214.07
2019-02-02T16:51:48.627Z,199.87
2019-02-02T16:55:11.672Z,198.10
2019-02-02T16:58:34.262Z,194.47
2019-02-02T17:01:57.674Z,196.07
2019-02-02T17:05:20.617Z,181.13
2019-02-02T17:08:43.264Z,187.13
2019-02-02T17:12:06.193Z,202.53
2019-02-02T17:15:28.643Z,196.03
2019-02-02T17:18:51.157Z,197.33
2019-02-02T17:22:13.865Z,200.00
2019-02-02T17:25:36.588Z,204.80
2019-02-02T17:28:59.257Z,190.40
2019-02-02T17:32:21.841Z,197.87
2019-02-02T17:35:44.942Z,205.37
2019-02-02T17:39:08.298Z,211.40
2019-02-02T17:42:30.974Z,221.00
2019-02-02T17:45:53.629Z,232.73
2019-02-02T17:49:15.941Z,225.77
2019-02-02T17:52:38.366Z,233.23
2019-02-02T17:56:00.851Z,218.33
2019-02-02T17:59:23.670Z,224.00
2019-02-02T18:02:46.428Z,220.47
2019-02-02T18:06:09.266Z,213.57
2019-02-02T18:09:31.462Z,201.37
2019-02-02T18:12:54.208Z,211.67
2019-02-02T18:16:16.765Z,195.47
2019-02-02T18:19:39.235Z,206.13
2019-02-02T18:23:01.840Z,186.87
2019-02-02T18:26:24.123Z,178.67
2019-02-02T18:29:46.857Z,188.83
2019-02-02T18:33:09.044Z,175.73
2019-02-02T18:36:31.522Z,179.70
2019-02-02T18:39:54.366Z,183.63
2019-02-02T18:43:17.331Z,183.30
2019-02-02T18:46:40.061Z,172.97
2019-02-02T18:50:02.753Z,167.40
2019-02-02T18:53:25.132Z,156.67
2019-02-02T18:56:48.014Z,154.70
2019-02-02T19:00:14.169Z,145.20
2019-02-02T19:03:36.930Z,144.33
2019-02-02T19:06:59.585Z,147.50
2019-02-02T19:10:25.257Z,149.50
2019-02-02T19:13:47.864Z,145.20
2019-02-02T19:17:10.473Z,153.17
2019-02-02T19:20:33.026Z,158.13
2019-02-02T19:23:55.264Z,147.00
2019-02-02T19:27:18.157Z,156.13
2019-02-02T19:30:40.773Z,159.50
2019-02-02T19:34:03.386Z,152.43
2019-02-02T19:37:25.962Z,163.10
2019-02-02T19:40:48.572Z,157.50
2019-02-02T19:44:11.018Z,159.10
2019-02-02T19:47:34.714Z,166.50
2019-02-02T19:50:57.622Z,151.43
2019-02-02T19:54:20.406Z,161.97
2019-02-02T19:57:43.258Z,171.77
2019-02-02T20:01:05.937Z,162.53
2019-02-02T20:04:28.294Z,171.20
2019-02-02T20:07:50.919Z,157.57
2019-02-02T20:11:14.106Z,207.30
2019-02-02T20:14:36.508Z,163.80
2019-02-02T20:18:09.394Z,171.03
2019-02-02T20:21:22.654Z,159.53
2019-02-02T20:24:44.768Z,162.00
2019-02-02T20:28:07.038Z,159.67
2019-02-02T20:31:29.742Z,165.53
2019-02-02T20:34:52.226Z,167.90
2019-02-02T20:38:14.871Z,167.27
2019-02-02T20:41:37.300Z,165.60
2019-02-02T20:44:59.624Z,169.07
2019-02-02T20:48:22.149Z,172.63
2019-02-02T20:51:45.400Z,207.07
2019-02-02T20:55:10.552Z,193.17
2019-02-02T20:58:32.397Z,209.10
2019-02-02T21:01:55.228Z,206.37
2019-02-02T21:05:17.754Z,227.47
2019-02-02T21:08:40.122Z,227.53
2019-02-02T21:12:02.822Z,219.80
2019-02-02T21:15:25.413Z,224.97
2019-02-02T21:18:47.917Z,233.90
2019-02-02T21:22:10.605Z,259.23
2019-02-02T21:25:34.074Z,253.57
2019-02-02T21:28:56.826Z,233.60
2019-02-02T21:32:18.913Z,252.43
2019-02-02T21:35:41.438Z,257.43
2019-02-02T21:39:07.322Z,242.07
2019-02-02T21:42:30.041Z,237.87
2019-02-02T21:45:52.582Z,212.80
2019-02-02T21:49:15.160Z,220.63
2019-02-02T21:52:38.469Z,208.07
2019-02-02T21:56:00.931Z,208.90
2019-02-02T21:59:23.686Z,223.57
2019-02-02T22:02:46.436Z,208.73
2019-02-02T22:06:15.537Z,198.90
2019-02-02T22:09:33.066Z,197.83
2019-02-02T22:12:55.521Z,166.23
2019-02-02T22:16:18.216Z,155.53
2019-02-02T22:19:40.960Z,124.10
2019-02-02T22:23:03.897Z,105.13
2019-02-02T22:26:26.834Z,107.37
2019-02-02T22:29:49.152Z,102.70
2019-02-02T22:33:11.818Z,114.73
2019-02-02T22:36:34.781Z,96.03
2019-02-02T22:39:57.854Z,101.33
2019-02-02T22:43:20.715Z,92.67
2019-02-02T22:46:43.301Z,81.80
2019-02-02T22:50:06.752Z,93.00
2019-02-02T22:53:29.613Z,85.83
2019-02-02T22:56:52.020Z,79.23
2019-02-02T23:00:29.827Z,84.27
2019-02-02T23:04:17.143Z,75.20
2019-02-02T23:08:08.688Z,82.93
2019-02-02T23:12:04.636Z,82.17
2019-02-02T23:15:54.232Z,69.83
2019-02-02T23:19:16.985Z,72.87
2019-02-02T23:22:39.451Z,74.10
2019-02-02T23:26:01.906Z,66.27
2019-02-02T23:29:24.410Z,72.47
2019-02-02T23:32:46.801Z,76.03
2019-02-02T23:36:09.325Z,81.67
2019-02-02T23:39:31.361Z,71.53
2019-02-02T23:42:54.216Z,68.57
2019-02-02T23:46:16.941Z,67.10
2019-02-02T23:49:39.488Z,63.00
2019-02-02T23:53:01.613Z,65.00
2019-02-02T23:56:24.322Z,56.93
2019-02-02T23:59:46.843Z,61.47
